Jacksonville, GA (31544)

8:26 PM EST on February 08, 2016 (GMT -0500)
Hazlehurst | | Change Station
CLOSE
Current Station
Airport
Location: Hazlehurst,
Elevation: 256 ft
Nearby Weather Stations
Active Advisory: Flood Warning

Elev 256 ft 31.88 °N, 82.65 °W | Updated 11 minutes ago

Partly Cloudy
Partly Cloudy
45 °F
Feels Like 45 °F
N
0
Wind Variable Wind from North

Today
High -- | Low -- °F
--% Chance of Precip.
Yesterday
High -- | Low -- °F
Precip. -- in
Pressure 29.77 in
Visibility 10.0 miles
Clouds Clear
Dew Point 45 °F
Humidity 100%
Rainfall 0.00 in
Snow Depth Not available.
7:20 AM 6:11 PM
New Moon, 0% visible
METAR KAZE 090115Z AUTO 00000KT 10SM CLR 07/07 A2977 RMK AO2 T00720072
Pressure 29.77 in
Visibility 10.0 miles
Clouds Clear
Dew Point 45 °F
Humidity 100%
Rainfall 0.00 in
Snow Depth Not available.
7:20 AM 6:11 PM
New Moon, 0% visible
METAR KAZE 090115Z AUTO 00000KT 10SM CLR 07/07 A2977 RMK AO2 T00720072

10-Day Weather Forecast

Almanac

Astronomy

Feb. 08, 2016 Rise Set
Actual Time
Civil Twilight
Nautical Twilight
Astronomical Twilight
Moon
Length of Visible Light
Length of Day
Tomorrow will be .
, % of the Moon is Illuminated

Today's Extremes

State Highs State Lows

Community

WunderPhotos

Upload Photos

1,891,527 photos uploaded!

WunderBlog® & News

Nearby

Air Quality

  Air Quality AQ Index Pollutant
Not available.

Snow Depth

Station Depth Elevation

Earthquake Activity

City Distance Mag. Time & Date
Minimum magnitude displayed is 2.5.

Coastal Water Temperatures

Place Temperature

Stations

Nearby Weather Stations

Station Location Temp. Windchill Dew Point Humidity Wind Precip. Elev Updated Type
                   

Watches & Warnings

Flood Warning
Issued: 8:04 PM EST Feb. 8, 2016 – National Weather Service

The Flood Warning continues for
the Ocmulgee River near Abbeville.
* From Wednesday afternoon until further notice.
* At 7 PM Monday the stage was 11.7 feet... and falling.
* Minor flooding is forecast.
* Flood stage is 12 feet.
* Forecast to rise above flood stage by Wednesday afternoon and
continue to rise to 12.6 feet by early Friday morning.
* At 13.0 feet... minor flooding of lowlands adjacent to the river
continue to expand into the flood plain. Flooding of the nearby
park and parking lot at the Abbeville boat ramp also expands.




Lat... Lon 3206 8337 3210 8332 3188 8315 3181 8299
      3175 8299 3184 8320